Jordan, MT

3:20 AM MDT on August 29, 2014 (GMT -0600)
Wiley | Change Station
CLOSE
Current Station
Airport
Location: Miles City,
Elevation: 2628 ft
Nearby Weather Stations

Elev 2628 ft 46.43 °N, 105.88 °W | Updated 27 minutes ago

Scattered Clouds
Scattered Clouds
66 °F
Feels Like 66 °F
N
12
Wind Variable Wind from NNE
Gusts 28 mph

Today
High -- | Low -- °F
--% Chance of Precip.
Yesterday
High -- | Low -- °F
Precip. -- in
6:21 AM 7:53 PM
Waxing Crescent, 13% visible
Pressure 29.85 in
Visibility 10.0 miles
Clouds Scattered Clouds 11000 ft
Dew Point 55 °F
Humidity 68%
Rainfall 0.00 in
Snow Depth Not available.
UV 0 out of 12
Pollen 9.40 out of 12
Air Quality Not available.
Flu Activity Not available.
METAR KMLS 290853Z AUTO 03010G24KT 10SM SCT110 19/13 A2992 RMK AO2 WSHFT 0747 SLP108 T01890128 53029

More Conditions Fewer Conditions

Pressure 29.85 in
Visibility 10.0 miles
Clouds Scattered Clouds 11000 ft
Dew Point 55 °F
Humidity 68%
Rainfall 0.00 in
Snow Depth Not available.
UV 0 out of 12
Pollen 9.40 out of 12
Air Quality Not available.
Flu Activity Not available.
METAR KMLS 290853Z AUTO 03010G24KT 10SM SCT110 19/13 A2992 RMK AO2 WSHFT 0747 SLP108 T01890128 53029

More Conditions Fewer Conditions

10-Day Weather Forecast

Almanac

Astronomy

Aug. 29, 2014 Rise Set
Actual Time 6:21 AM MDT 7:53 PM MDT
Civil Twilight 5:49 AM MDT 8:25 PM MDT
Nautical Twilight 5:10 AM MDT 9:04 PM MDT
Astronomical Twilight 4:28 AM MDT 9:46 PM MDT
Moon 10:33 AM MDT 9:32 PM MDT
Length of Visible Light 14h 35m
Length of Day
13h 31m
Tomorrow will be 3m 16s shorter.
Waxing Crescent, 13% of the Moon is Illuminated
Today
Waxing Crescent
Sep 2
First Quarter
Sep 8
Full
Sep 15
Last Quarter
Sep 24
New

Today's Extremes

State Highs State Lows

Community

WunderPhotos

Upload Photos

1,748,203 photos uploaded!

Nearby

Snow Depth

Station Depth Elevation
Crystal Lake 1 in 6050 ft
Spur Park 0 in 8100 ft
Deadman Creek 0 in 6450 ft
Onion Park 0 in 7410 ft
Stringer Creek 0 in 6550 ft

Earthquake Activity

City Distance Mag. Time & Date
No recent earthquake activity has been reported nearby.
Minimum magnitude displayed is 2.5.

Coastal Water Temperatures

Place Temperature
No Stations Reporting

Nearby Weather Stations